Terminal Aerodrome Forecast
Issued by NWS Boise, ID

Home | Current Version | Previous Version | Text Only | Print | Product List | Glossary On
Versions: 1 2 3 4 5 6 7 8 9 10 11 12 13 14 15 16 17 18 19 20
000
FTUS45 KBOI 220520
TAFBNO
TAF
KBNO 220520Z 2206/2306 05005KT P6SM BKN200
     FM222000 25006KT P6SM SCT090
     FM230100 09005KT P6SM SCT090
      AMD NOT SKED=

USA.gov is the U.S. government's official web portal to all federal, state and local government web resources and services.